createdAt,value
2022-12-01T00:00:39.208Z,6.78
2022-12-01T00:01:39.247Z,6.78
2022-12-01T00:02:39.335Z,6.83
2022-12-01T00:03:39.171Z,6.85
2022-12-01T00:04:39.152Z,6.83
2022-12-01T00:05:39.151Z,6.85
2022-12-01T00:06:39.131Z,6.85
2022-12-01T00:07:39.183Z,6.83
2022-12-01T00:08:39.121Z,6.82
2022-12-01T00:09:39.102Z,6.80
2022-12-01T00:10:39.083Z,6.85
2022-12-01T00:11:39.081Z,6.83
2022-12-01T00:12:39.062Z,6.80
2022-12-01T00:13:39.070Z,6.83
2022-12-01T00:14:39.046Z,6.80
2022-12-01T00:15:39.041Z,6.80
2022-12-01T00:16:39.162Z,6.77
2022-12-01T00:17:39.024Z,6.80
2022-12-01T00:18:38.994Z,6.82
2022-12-01T00:19:39.017Z,6.83
2022-12-01T00:20:38.983Z,6.78
2022-12-01T00:21:38.970Z,6.75
2022-12-01T00:22:38.951Z,6.78
2022-12-01T00:23:38.952Z,6.77
2022-12-01T00:24:38.939Z,6.75
2022-12-01T00:25:38.970Z,6.77
2022-12-01T00:26:38.909Z,6.75
2022-12-01T00:27:38.948Z,6.75
2022-12-01T00:28:38.890Z,6.80
2022-12-01T00:29:38.901Z,6.80
2022-12-01T00:30:38.870Z,6.82
2022-12-01T00:31:39.021Z,6.77
2022-12-01T00:32:38.849Z,6.77
2022-12-01T00:33:38.849Z,6.80
2022-12-01T00:34:38.839Z,6.83
2022-12-01T00:35:38.876Z,6.82
2022-12-01T00:36:38.830Z,6.82
2022-12-01T00:37:38.842Z,6.80
2022-12-01T00:38:38.789Z,6.83
2022-12-01T00:39:38.799Z,6.82
2022-12-01T00:40:38.798Z,6.82
2022-12-01T00:41:38.757Z,6.83
2022-12-01T00:42:38.739Z,6.82
2022-12-01T00:43:38.728Z,6.78
2022-12-01T00:44:38.718Z,6.78
2022-12-01T00:45:38.784Z,6.78
2022-12-01T00:46:38.737Z,6.80
2022-12-01T00:47:38.688Z,6.80
2022-12-01T00:48:38.675Z,6.80
2022-12-01T00:49:38.672Z,6.83
2022-12-01T00:50:38.655Z,6.77
2022-12-01T00:51:38.647Z,6.77
2022-12-01T00:52:38.665Z,6.78
2022-12-01T00:53:38.648Z,6.74
2022-12-01T00:54:38.619Z,6.75
2022-12-01T00:55:38.616Z,6.75
2022-12-01T00:56:38.604Z,6.71
2022-12-01T00:57:38.578Z,6.70
2022-12-01T00:58:38.575Z,6.70
2022-12-01T00:59:38.558Z,6.71
2022-12-01T01:00:38.539Z,6.70
2022-12-01T01:01:38.576Z,6.70
2022-12-01T01:02:38.556Z,6.70
2022-12-01T01:03:38.517Z,6.72
2022-12-01T01:04:38.507Z,6.72
2022-12-01T01:05:38.500Z,6.72
2022-12-01T01:06:38.479Z,6.71
2022-12-01T01:07:38.512Z,6.72
2022-12-01T01:08:38.454Z,6.75
2022-12-01T01:09:38.482Z,6.77
2022-12-01T01:10:38.436Z,6.75
2022-12-01T01:11:38.446Z,6.78
2022-12-01T01:12:38.414Z,6.78
2022-12-01T01:13:38.446Z,6.77
2022-12-01T01:14:38.394Z,6.72
2022-12-01T01:15:38.393Z,6.75
2022-12-01T01:16:38.461Z,6.77
2022-12-01T01:17:38.364Z,6.75
2022-12-01T01:18:38.352Z,6.75
2022-12-01T01:19:38.342Z,6.77
2022-12-01T01:20:38.332Z,6.77
2022-12-01T01:21:38.357Z,6.80
2022-12-01T01:22:38.314Z,6.77
2022-12-01T01:23:38.309Z,6.78
2022-12-01T01:24:38.291Z,6.75
2022-12-01T01:25:38.302Z,6.75
2022-12-01T01:26:38.306Z,6.75
2022-12-01T01:27:38.288Z,6.77
2022-12-01T01:28:38.247Z,6.74
2022-12-01T01:29:38.233Z,6.74
2022-12-01T01:30:38.247Z,6.70
2022-12-01T01:31:38.222Z,6.70
2022-12-01T01:32:38.202Z,6.67
2022-12-01T01:33:38.203Z,6.70
2022-12-01T01:34:38.178Z,6.70
2022-12-01T01:35:38.173Z,6.71
2022-12-01T01:36:38.172Z,6.68
2022-12-01T01:37:38.153Z,6.71
2022-12-01T01:38:38.131Z,6.70
2022-12-01T01:39:38.133Z,6.74
2022-12-01T01:40:38.147Z,6.72
2022-12-01T01:41:38.123Z,6.71
2022-12-01T01:42:38.089Z,6.74
2022-12-01T01:43:38.083Z,6.71
2022-12-01T01:44:38.065Z,6.75
2022-12-01T01:45:38.129Z,6.77
2022-12-01T01:46:38.060Z,6.75
2022-12-01T01:47:38.048Z,6.75
2022-12-01T01:48:38.030Z,6.74
2022-12-01T01:49:38.029Z,6.74
2022-12-01T01:50:38.006Z,6.72
2022-12-01T01:51:38.033Z,6.75
2022-12-01T01:52:37.980Z,6.75
2022-12-01T01:53:37.982Z,6.75
2022-12-01T01:54:37.973Z,6.72
2022-12-01T01:55:37.964Z,6.71
2022-12-01T01:56:37.945Z,6.74
2022-12-01T01:57:37.969Z,6.75
2022-12-01T01:58:37.919Z,6.77
2022-12-01T01:59:37.910Z,6.74
2022-12-01T02:00:37.899Z,6.75
2022-12-01T02:01:37.936Z,6.78
2022-12-01T02:02:37.946Z,6.72
2022-12-01T02:03:37.871Z,6.71
2022-12-01T02:04:37.873Z,6.72
2022-12-01T02:05:37.849Z,6.71
2022-12-01T02:06:37.839Z,6.72
2022-12-01T02:07:37.879Z,6.71
2022-12-01T02:08:37.824Z,6.70
2022-12-01T02:09:37.809Z,6.72
2022-12-01T02:10:37.789Z,6.72
2022-12-01T02:11:37.785Z,6.68
2022-12-01T02:12:37.768Z,6.70
2022-12-01T02:13:37.770Z,6.68
2022-12-01T02:14:37.749Z,6.70
2022-12-01T02:15:37.761Z,6.68
2022-12-01T02:16:37.818Z,6.64
2022-12-01T02:17:41.723Z,6.70
2022-12-01T02:18:37.709Z,6.71
2022-12-01T02:19:37.693Z,6.71
2022-12-01T02:20:37.689Z,6.74
2022-12-01T02:21:37.667Z,6.71
2022-12-01T02:22:37.677Z,6.72
2022-12-01T02:23:37.655Z,6.74
2022-12-01T02:24:37.667Z,6.72
2022-12-01T02:25:37.636Z,6.74
2022-12-01T02:26:37.642Z,6.72
2022-12-01T02:27:37.694Z,6.74
2022-12-01T02:28:37.626Z,6.67
2022-12-01T02:29:37.605Z,6.67
2022-12-01T02:30:37.624Z,6.68
2022-12-01T02:31:37.576Z,6.68
2022-12-01T02:32:37.566Z,6.67
2022-12-01T02:33:37.555Z,6.67
2022-12-01T02:34:37.530Z,6.71
2022-12-01T02:35:37.516Z,6.71
2022-12-01T02:36:37.551Z,6.70
2022-12-01T02:37:37.525Z,6.67
2022-12-01T02:38:37.485Z,6.67
2022-12-01T02:39:37.474Z,6.70
2022-12-01T02:40:37.485Z,6.68
2022-12-01T02:41:37.445Z,6.70
2022-12-01T02:42:37.486Z,6.65
2022-12-01T02:43:37.432Z,6.67
2022-12-01T02:44:37.421Z,6.65
2022-12-01T02:45:37.405Z,6.67
2022-12-01T02:46:37.465Z,6.67
2022-12-01T02:47:37.384Z,6.68
2022-12-01T02:48:37.394Z,6.68
2022-12-01T02:49:37.373Z,6.71
2022-12-01T02:50:37.402Z,6.68
2022-12-01T02:51:37.334Z,6.70
2022-12-01T02:52:37.339Z,6.71
2022-12-01T02:53:37.323Z,6.74
2022-12-01T02:54:37.312Z,6.71
2022-12-01T02:55:37.294Z,6.68
2022-12-01T02:56:37.293Z,6.71
2022-12-01T02:57:37.284Z,6.68
2022-12-01T02:58:37.274Z,6.67
2022-12-01T02:59:37.254Z,6.71
2022-12-01T03:00:37.253Z,6.68
2022-12-01T03:01:37.273Z,6.70
2022-12-01T03:02:37.309Z,6.65
2022-12-01T03:03:37.223Z,6.68
2022-12-01T03:04:37.232Z,6.65
2022-12-01T03:05:37.200Z,6.67
2022-12-01T03:06:37.182Z,6.65
2022-12-01T03:07:37.210Z,6.67
2022-12-01T03:08:37.172Z,6.68
2022-12-01T03:09:37.143Z,6.70
2022-12-01T03:10:37.140Z,6.68
2022-12-01T03:11:37.152Z,6.68
2022-12-01T03:12:37.127Z,6.70
2022-12-01T03:13:37.121Z,6.70
2022-12-01T03:14:37.114Z,6.64
2022-12-01T03:15:37.136Z,6.65
2022-12-01T03:16:37.119Z,6.64
2022-12-01T03:17:37.069Z,6.67
2022-12-01T03:18:37.073Z,6.67
2022-12-01T03:19:37.030Z,6.64
2022-12-01T03:20:37.029Z,6.64
2022-12-01T03:21:37.010Z,6.65
2022-12-01T03:22:37.009Z,6.64
2022-12-01T03:23:37.032Z,6.59
2022-12-01T03:24:36.990Z,6.64
2022-12-01T03:25:37.020Z,6.65
2022-12-01T03:26:36.969Z,6.65
2022-12-01T03:27:36.948Z,6.65
2022-12-01T03:28:37.001Z,6.67
2022-12-01T03:29:36.928Z,6.67
2022-12-01T03:30:36.996Z,6.67
2022-12-01T03:31:36.972Z,6.65
2022-12-01T03:32:36.899Z,6.65
2022-12-01T03:33:36.927Z,6.65
2022-12-01T03:34:36.881Z,6.64
2022-12-01T03:35:36.869Z,6.64
2022-12-01T03:36:36.858Z,6.60
2022-12-01T03:37:36.839Z,6.62
2022-12-01T03:38:36.876Z,6.60
2022-12-01T03:39:36.828Z,6.59
2022-12-01T03:40:36.809Z,6.64
2022-12-01T03:41:36.830Z,6.64
2022-12-01T03:42:36.858Z,6.65
2022-12-01T03:43:36.779Z,6.65
2022-12-01T03:44:36.808Z,6.67
2022-12-01T03:45:36.759Z,6.65
2022-12-01T03:46:36.784Z,6.62
2022-12-01T03:47:36.736Z,6.60
2022-12-01T03:48:36.727Z,6.60
2022-12-01T03:49:36.708Z,6.64
2022-12-01T03:50:36.696Z,6.65
2022-12-01T03:51:37.352Z,6.67
2022-12-01T03:52:36.680Z,6.64
2022-12-01T03:53:36.667Z,6.60
2022-12-01T03:54:36.689Z,6.60
2022-12-01T03:55:36.654Z,6.60
2022-12-01T03:56:36.636Z,6.59
2022-12-01T03:57:36.617Z,6.60
2022-12-01T03:58:36.639Z,6.59
2022-12-01T03:59:36.607Z,6.59
2022-12-01T04:00:36.607Z,6.59
2022-12-01T04:01:36.635Z,6.57
2022-12-01T04:02:36.613Z,6.54
2022-12-01T04:03:36.555Z,6.56
2022-12-01T04:04:36.557Z,6.57
2022-12-01T04:05:36.543Z,6.57
2022-12-01T04:06:36.555Z,6.54
2022-12-01T04:07:36.560Z,6.57
2022-12-01T04:08:36.515Z,6.59
2022-12-01T04:09:36.511Z,6.59
2022-12-01T04:10:36.497Z,6.62
2022-12-01T04:11:36.478Z,6.60
2022-12-01T04:12:36.465Z,6.59
2022-12-01T04:13:36.455Z,6.57
2022-12-01T04:14:36.445Z,6.56
2022-12-01T04:15:36.425Z,6.59
2022-12-01T04:16:36.553Z,6.54
2022-12-01T04:17:36.425Z,6.57
2022-12-01T04:18:36.402Z,6.56
2022-12-01T04:19:37.049Z,6.59
2022-12-01T04:20:36.377Z,6.57
2022-12-01T04:21:36.364Z,6.56
2022-12-01T04:22:36.356Z,6.54
2022-12-01T04:23:36.393Z,6.59
2022-12-01T04:24:36.361Z,6.59
2022-12-01T04:25:36.324Z,6.60
2022-12-01T04:26:36.319Z,6.62
2022-12-01T04:27:36.347Z,6.64
2022-12-01T04:28:36.295Z,6.64
2022-12-01T04:29:36.293Z,6.59
2022-12-01T04:30:36.318Z,6.56
2022-12-01T04:31:36.321Z,6.57
2022-12-01T04:32:36.245Z,6.53
2022-12-01T04:33:36.260Z,6.56
2022-12-01T04:34:36.236Z,6.52
2022-12-01T04:35:36.213Z,6.57
2022-12-01T04:36:36.255Z,6.59
2022-12-01T04:37:36.193Z,6.56
2022-12-01T04:38:36.182Z,6.57
2022-12-01T04:39:36.216Z,6.56
2022-12-01T04:40:36.172Z,6.53
2022-12-01T04:41:36.183Z,6.52
2022-12-01T04:42:36.282Z,6.50
2022-12-01T04:43:36.112Z,6.54
2022-12-01T04:44:36.126Z,6.54
2022-12-01T04:45:36.098Z,6.56
2022-12-01T04:46:36.149Z,6.54
2022-12-01T04:47:36.088Z,6.50
2022-12-01T04:48:36.071Z,6.49
2022-12-01T04:49:36.058Z,6.53
2022-12-01T04:50:36.041Z,6.56
2022-12-01T04:51:36.049Z,6.56
2022-12-01T04:52:36.021Z,6.56
2022-12-01T04:53:36.029Z,6.52
2022-12-01T04:54:36.148Z,6.53
2022-12-01T04:55:35.987Z,6.52
2022-12-01T04:56:36.000Z,6.52
2022-12-01T04:57:35.969Z,6.53
2022-12-01T04:58:35.981Z,6.56
2022-12-01T04:59:35.957Z,6.56
2022-12-01T05:00:36.001Z,6.53
2022-12-01T05:01:35.983Z,6.54
2022-12-01T05:02:35.931Z,6.56
2022-12-01T05:03:36.048Z,6.54
2022-12-01T05:04:35.904Z,6.56
2022-12-01T05:05:35.891Z,6.54
2022-12-01T05:06:35.892Z,6.59
2022-12-01T05:07:35.971Z,6.56
2022-12-01T05:08:35.861Z,6.56
2022-12-01T05:09:35.841Z,6.54
2022-12-01T05:10:35.839Z,6.49
2022-12-01T05:11:35.946Z,6.52
2022-12-01T05:12:36.509Z,6.53
2022-12-01T05:13:35.798Z,6.56
2022-12-01T05:14:35.801Z,6.57
2022-12-01T05:15:36.114Z,6.54
2022-12-01T05:16:35.875Z,6.57
2022-12-01T05:17:37.241Z,6.56
2022-12-01T05:18:35.866Z,6.53
2022-12-01T05:19:35.727Z,6.54
2022-12-01T05:20:35.819Z,6.56
2022-12-01T05:21:35.708Z,6.57
2022-12-01T05:23:03.817Z,6.52
2022-12-01T05:23:36.691Z,6.49
2022-12-01T05:24:35.689Z,6.49
2022-12-01T05:25:35.675Z,6.47
2022-12-01T05:26:35.669Z,6.49
2022-12-01T05:27:35.647Z,6.54
2022-12-01T05:28:35.638Z,6.50
2022-12-01T05:29:35.633Z,6.53
2022-12-01T05:30:35.627Z,6.50
2022-12-01T05:31:36.630Z,6.52
2022-12-01T05:32:35.627Z,6.52
2022-12-01T05:33:35.598Z,6.50
2022-12-01T05:34:35.570Z,6.46
2022-12-01T05:35:35.604Z,6.47
2022-12-01T05:36:35.555Z,6.49
2022-12-01T05:37:35.539Z,6.50
2022-12-01T05:38:35.535Z,6.50
2022-12-01T05:39:35.515Z,6.49
2022-12-01T05:40:35.541Z,6.49
2022-12-01T05:41:35.499Z,6.52
2022-12-01T05:42:35.506Z,6.50
2022-12-01T05:43:35.465Z,6.50
2022-12-01T05:44:35.463Z,6.52
2022-12-01T05:45:35.551Z,6.53
2022-12-01T05:46:35.445Z,6.53
2022-12-01T05:47:35.434Z,6.50
2022-12-01T05:48:35.426Z,6.52
2022-12-01T05:49:35.425Z,6.53
2022-12-01T05:50:35.415Z,6.52
2022-12-01T05:51:35.385Z,6.53
2022-12-01T05:52:35.376Z,6.56
2022-12-01T05:53:35.377Z,6.54
2022-12-01T05:54:35.355Z,6.52
2022-12-01T05:55:35.335Z,6.52
2022-12-01T05:56:35.335Z,6.53
2022-12-01T05:57:35.347Z,6.52
2022-12-01T05:58:35.316Z,6.44
2022-12-01T05:59:35.302Z,6.46
2022-12-01T06:00:37.557Z,6.47
2022-12-01T06:01:35.328Z,6.50
2022-12-01T06:02:35.272Z,6.47
2022-12-01T06:03:35.254Z,6.49
2022-12-01T06:04:35.277Z,6.50
2022-12-01T06:05:35.304Z,6.49
2022-12-01T06:06:35.240Z,6.50
2022-12-01T06:07:35.230Z,6.49
2022-12-01T06:08:35.203Z,6.52
2022-12-01T06:09:35.185Z,6.52
2022-12-01T06:10:35.268Z,6.53
2022-12-01T06:11:35.198Z,6.54
2022-12-01T06:12:35.162Z,6.53
2022-12-01T06:13:35.143Z,6.52
2022-12-01T06:14:35.141Z,6.49
2022-12-01T06:15:35.124Z,6.47
2022-12-01T06:16:35.190Z,6.44
2022-12-01T06:17:39.924Z,6.41
2022-12-01T06:18:36.091Z,6.39
2022-12-01T06:19:35.076Z,6.41
2022-12-01T06:20:35.114Z,6.36
2022-12-01T06:21:35.071Z,6.38
2022-12-01T06:22:35.070Z,6.41
2022-12-01T06:23:35.033Z,6.46
2022-12-01T06:24:35.023Z,6.46
2022-12-01T06:25:35.023Z,6.43
2022-12-01T06:26:35.008Z,6.36
2022-12-01T06:27:35.015Z,6.41
2022-12-01T06:28:34.995Z,6.41
2022-12-01T06:29:40.548Z,6.44
2022-12-01T06:30:35.965Z,6.36
2022-12-01T06:31:34.981Z,6.43
2022-12-01T06:32:34.938Z,6.46
2022-12-01T06:33:34.940Z,6.46
2022-12-01T06:34:34.935Z,6.46
2022-12-01T06:35:34.952Z,6.49
2022-12-01T06:36:34.924Z,6.47
2022-12-01T06:37:34.924Z,6.50
2022-12-01T06:38:34.879Z,6.49
2022-12-01T06:39:34.874Z,6.47
2022-12-01T06:40:34.859Z,6.46
2022-12-01T06:41:34.862Z,6.50
2022-12-01T06:42:34.838Z,6.47
2022-12-01T06:43:34.829Z,6.50
2022-12-01T06:44:34.846Z,6.49
2022-12-01T06:45:34.772Z,6.47
2022-12-01T06:46:34.778Z,6.44
2022-12-01T06:47:34.730Z,6.44
2022-12-01T06:48:34.700Z,6.44
2022-12-01T06:49:34.689Z,6.43
2022-12-01T06:50:34.697Z,6.46
2022-12-01T06:51:34.667Z,6.44
2022-12-01T06:52:34.659Z,6.39
2022-12-01T06:53:34.647Z,6.46
2022-12-01T06:54:34.661Z,6.43
2022-12-01T06:55:34.627Z,6.44
2022-12-01T06:56:34.627Z,6.41
2022-12-01T06:57:34.629Z,6.43
2022-12-01T06:58:34.597Z,6.44
2022-12-01T06:59:34.595Z,6.44
2022-12-01T07:00:34.590Z,6.41
2022-12-01T07:01:34.589Z,6.43
2022-12-01T07:02:34.638Z,6.38
2022-12-01T07:03:34.573Z,6.39
2022-12-01T07:04:34.536Z,6.41
2022-12-01T07:05:34.516Z,6.43
2022-12-01T07:06:34.555Z,6.41
2022-12-01T07:07:34.551Z,6.38
2022-12-01T07:08:34.518Z,6.35
2022-12-01T07:09:34.490Z,6.36
2022-12-01T07:10:34.476Z,6.38
2022-12-01T07:11:34.483Z,6.39
2022-12-01T07:12:34.446Z,6.41
2022-12-01T07:13:34.437Z,6.39
2022-12-01T07:14:34.438Z,6.41
2022-12-01T07:15:34.418Z,6.41
2022-12-01T07:16:34.482Z,6.46
2022-12-01T07:17:34.435Z,6.41
2022-12-01T07:18:34.405Z,6.36
2022-12-01T07:19:34.398Z,6.38
2022-12-01T07:20:34.368Z,6.41
2022-12-01T07:21:34.403Z,6.46
2022-12-01T07:22:34.395Z,6.39
2022-12-01T07:23:34.325Z,6.44
2022-12-01T07:24:34.324Z,6.43
2022-12-01T07:25:34.322Z,6.44
2022-12-01T07:26:34.335Z,6.46
2022-12-01T07:27:34.320Z,6.43
2022-12-01T07:28:34.304Z,6.43
2022-12-01T07:29:34.264Z,6.38
2022-12-01T07:30:34.304Z,6.38
2022-12-01T07:31:34.277Z,6.38
2022-12-01T07:32:34.244Z,6.35
2022-12-01T07:33:34.232Z,6.38
2022-12-01T07:34:34.213Z,6.32
2022-12-01T07:35:34.212Z,6.35
2022-12-01T07:36:34.209Z,6.36
2022-12-01T07:37:34.188Z,6.38
2022-12-01T07:38:34.173Z,6.36
2022-12-01T07:39:34.161Z,6.39
2022-12-01T07:40:34.191Z,6.39
2022-12-01T07:41:34.132Z,6.43
2022-12-01T07:42:34.143Z,6.44
2022-12-01T07:43:34.112Z,6.44
2022-12-01T07:44:34.112Z,6.46
2022-12-01T07:45:34.165Z,6.49
2022-12-01T07:46:34.165Z,6.50
2022-12-01T07:47:34.107Z,6.50
2022-12-01T07:48:34.061Z,6.49
2022-12-01T07:49:34.049Z,6.49
2022-12-01T07:50:34.034Z,6.50
2022-12-01T07:51:34.031Z,6.50
2022-12-01T07:52:34.103Z,6.52
2022-12-01T07:53:34.032Z,6.52
2022-12-01T07:54:34.040Z,6.50
2022-12-01T07:55:33.981Z,6.50
2022-12-01T07:56:33.972Z,6.50
2022-12-01T07:57:33.991Z,6.52
2022-12-01T07:58:33.949Z,6.52
2022-12-01T07:59:33.935Z,6.49
2022-12-01T08:00:33.929Z,6.39
2022-12-01T08:01:33.960Z,6.36
2022-12-01T08:02:33.964Z,6.35
2022-12-01T08:03:33.902Z,6.41
2022-12-01T08:04:33.881Z,6.38
2022-12-01T08:05:33.871Z,6.38
2022-12-01T08:06:33.857Z,6.44
2022-12-01T08:07:33.934Z,6.49
2022-12-01T08:08:33.841Z,6.47
2022-12-01T08:09:33.843Z,6.47
2022-12-01T08:10:33.809Z,6.41
2022-12-01T08:11:33.823Z,6.46
2022-12-01T08:12:33.817Z,6.44
2022-12-01T08:13:33.812Z,6.47
2022-12-01T08:14:33.771Z,6.47
2022-12-01T08:15:33.853Z,6.49
2022-12-01T08:16:33.748Z,6.53
2022-12-01T08:17:33.758Z,6.57
2022-12-01T08:18:33.753Z,6.57
2022-12-01T08:19:33.730Z,6.56
2022-12-01T08:20:33.709Z,6.59
2022-12-01T08:21:33.699Z,6.56
2022-12-01T08:22:33.759Z,6.53
2022-12-01T08:23:33.678Z,6.54
2022-12-01T08:24:33.668Z,6.54
2022-12-01T08:25:33.654Z,6.59
2022-12-01T08:26:33.679Z,6.62
2022-12-01T08:27:33.657Z,6.62
2022-12-01T08:28:33.628Z,6.64
2022-12-01T08:29:33.609Z,6.60
2022-12-01T08:30:33.605Z,6.60
2022-12-01T08:31:33.626Z,6.64
2022-12-01T08:32:33.576Z,6.60
2022-12-01T08:33:33.576Z,6.57
2022-12-01T08:34:33.696Z,6.53
2022-12-01T08:35:33.550Z,6.52
2022-12-01T08:36:33.538Z,6.52
2022-12-01T08:37:33.527Z,6.53
2022-12-01T08:38:33.528Z,6.54
2022-12-01T08:39:33.513Z,6.50
2022-12-01T08:40:33.494Z,6.52
2022-12-01T08:41:33.493Z,6.54
2022-12-01T08:42:33.474Z,6.57
2022-12-01T08:43:56.640Z,6.60
2022-12-01T08:44:34.478Z,6.62
2022-12-01T08:45:33.468Z,6.64
2022-12-01T08:46:33.568Z,6.64
2022-12-01T08:47:33.427Z,6.68
2022-12-01T08:48:33.449Z,6.68
2022-12-01T08:49:33.408Z,6.70
2022-12-01T08:50:33.384Z,6.70
2022-12-01T08:51:33.382Z,6.70
2022-12-01T08:52:33.365Z,6.65
2022-12-01T08:53:33.383Z,6.70
2022-12-01T08:54:33.343Z,6.74
2022-12-01T08:55:33.390Z,6.72
2022-12-01T08:56:33.316Z,6.70
2022-12-01T08:57:33.304Z,6.77
2022-12-01T08:58:33.335Z,6.77
2022-12-01T08:59:33.317Z,6.85
2022-12-01T09:00:33.306Z,6.83
2022-12-01T09:01:33.385Z,6.86
2022-12-01T09:02:33.421Z,6.85
2022-12-01T09:03:33.287Z,6.87
2022-12-01T09:04:33.263Z,6.92
2022-12-01T09:05:33.236Z,7.00
2022-12-01T09:06:33.211Z,7.00
2022-12-01T09:07:33.297Z,6.96
2022-12-01T09:08:33.229Z,6.90
2022-12-01T09:09:33.181Z,6.90
2022-12-01T09:10:33.191Z,6.90
2022-12-01T09:11:33.198Z,6.93
2022-12-01T09:12:33.152Z,6.92
2022-12-01T09:13:33.180Z,6.89
2022-12-01T09:14:33.156Z,6.86
2022-12-01T09:15:33.152Z,6.90
2022-12-01T09:16:33.261Z,6.87
2022-12-01T09:17:33.179Z,6.89
2022-12-01T09:18:33.091Z,6.89
2022-12-01T09:19:33.087Z,6.93
2022-12-01T09:20:33.069Z,6.95
2022-12-01T09:21:33.108Z,6.96
2022-12-01T09:22:33.048Z,6.92
2022-12-01T09:23:33.043Z,6.89
2022-12-01T09:24:33.011Z,6.92
2022-12-01T09:25:33.011Z,6.89
2022-12-01T09:26:32.999Z,6.92
2022-12-01T09:27:33.001Z,6.87
2022-12-01T09:28:33.000Z,6.92
2022-12-01T09:29:32.976Z,6.90
2022-12-01T09:30:32.959Z,6.95
2022-12-01T09:31:33.051Z,7.03
2022-12-01T09:32:32.939Z,7.00
2022-12-01T09:33:32.934Z,7.07
2022-12-01T09:34:32.910Z,7.07
2022-12-01T09:35:32.899Z,7.11
2022-12-01T09:36:32.938Z,7.11
2022-12-01T09:37:32.879Z,7.15
2022-12-01T09:38:32.888Z,7.11
2022-12-01T09:39:32.861Z,7.13
2022-12-01T09:40:32.841Z,7.14
2022-12-01T09:41:32.844Z,7.14
2022-12-01T09:42:35.530Z,7.11
2022-12-01T09:43:32.836Z,7.15
2022-12-01T09:44:32.801Z,7.19
2022-12-01T09:45:32.793Z,7.22
2022-12-01T09:46:32.805Z,7.22
2022-12-01T09:47:32.768Z,7.21
2022-12-01T09:48:32.771Z,7.21
2022-12-01T09:49:32.761Z,7.23
2022-12-01T09:50:32.749Z,7.22
2022-12-01T09:51:32.728Z,7.25
2022-12-01T09:52:32.717Z,7.23
2022-12-01T09:53:32.719Z,7.25
2022-12-01T09:54:32.690Z,7.15
2022-12-01T09:55:32.690Z,7.15
2022-12-01T09:56:32.670Z,7.19
2022-12-01T09:57:32.668Z,7.23
2022-12-01T09:58:32.684Z,7.23
2022-12-01T09:59:32.639Z,7.23
2022-12-01T10:00:32.732Z,7.23
2022-12-01T10:01:32.667Z,7.26
2022-12-01T10:02:32.685Z,7.26
2022-12-01T10:03:32.611Z,7.22
2022-12-01T10:04:32.736Z,7.22
2022-12-01T10:05:32.701Z,7.19
2022-12-01T10:06:32.600Z,7.18
2022-12-01T10:07:32.609Z,7.19
2022-12-01T10:08:32.564Z,7.19
2022-12-01T10:09:32.554Z,7.22
2022-12-01T10:10:32.542Z,7.15
2022-12-01T10:11:32.508Z,7.21
2022-12-01T10:12:32.490Z,7.21
2022-12-01T10:13:32.533Z,7.19
2022-12-01T10:14:32.484Z,7.21
2022-12-01T10:15:32.465Z,7.23
2022-12-01T10:16:32.524Z,7.14
2022-12-01T10:17:32.449Z,7.15
2022-12-01T10:18:32.427Z,7.18
2022-12-01T10:19:32.466Z,7.22
2022-12-01T10:20:32.404Z,7.19
2022-12-01T10:21:32.447Z,7.14
2022-12-01T10:22:32.415Z,7.15
2022-12-01T10:23:32.383Z,7.18
2022-12-01T10:24:32.377Z,7.21
2022-12-01T10:25:32.375Z,7.19
2022-12-01T10:26:32.336Z,7.19
2022-12-01T10:27:32.344Z,7.21
2022-12-01T10:28:32.358Z,7.19
2022-12-01T10:29:32.358Z,7.19
2022-12-01T10:30:32.294Z,7.15
2022-12-01T10:31:32.411Z,7.13
2022-12-01T10:32:32.275Z,7.14
2022-12-01T10:33:32.303Z,7.21
2022-12-01T10:34:32.264Z,7.22
2022-12-01T10:35:32.273Z,7.25
2022-12-01T10:36:32.234Z,7.26
2022-12-01T10:37:32.253Z,7.25
2022-12-01T10:38:32.209Z,7.26
2022-12-01T10:39:32.217Z,7.28
2022-12-01T10:40:32.194Z,7.31
2022-12-01T10:41:32.191Z,7.36
2022-12-01T10:42:32.162Z,7.36
2022-12-01T10:43:32.161Z,7.40
2022-12-01T10:44:32.162Z,7.47
2022-12-01T10:45:32.157Z,7.48
2022-12-01T10:46:32.121Z,7.55
2022-12-01T10:47:32.132Z,7.56
2022-12-01T10:48:32.152Z,7.58
2022-12-01T10:49:32.126Z,7.62
2022-12-01T10:50:32.155Z,7.64
2022-12-01T10:51:32.092Z,7.62
2022-12-01T10:52:32.061Z,7.64
2022-12-01T10:53:32.041Z,7.67
2022-12-01T10:54:32.051Z,7.67
2022-12-01T10:55:32.024Z,7.69
2022-12-01T10:56:32.081Z,7.74
2022-12-01T10:57:32.071Z,7.70
2022-12-01T10:58:32.029Z,7.69
2022-12-01T10:59:32.001Z,7.67
2022-12-01T11:01:33.129Z,7.66
2022-12-01T11:02:32.089Z,7.64
2022-12-01T11:03:32.269Z,7.64
2022-12-01T11:04:31.951Z,7.64
2022-12-01T11:05:31.933Z,7.61
2022-12-01T11:06:31.916Z,7.59
2022-12-01T11:07:31.924Z,7.55
2022-12-01T11:08:31.884Z,7.59
2022-12-01T11:09:31.878Z,7.59
2022-12-01T11:10:31.879Z,7.58
2022-12-01T11:11:31.848Z,7.62
2022-12-01T11:12:31.856Z,7.66
2022-12-01T11:13:31.827Z,7.62
2022-12-01T11:14:31.846Z,7.53
2022-12-01T11:15:31.810Z,7.44
2022-12-01T11:16:31.834Z,7.53
2022-12-01T11:17:32.507Z,7.66
2022-12-01T11:18:31.834Z,7.77
2022-12-01T11:19:31.817Z,7.87
2022-12-01T11:20:31.860Z,7.93
2022-12-01T11:21:31.759Z,8.03
2022-12-01T11:22:31.760Z,7.91
2022-12-01T11:23:31.727Z,7.84
2022-12-01T11:24:31.801Z,7.93
2022-12-01T11:25:31.709Z,8.02
2022-12-01T11:26:31.753Z,8.11
2022-12-01T11:27:31.720Z,8.17
2022-12-01T11:28:31.668Z,8.24
2022-12-01T11:29:31.709Z,8.31
2022-12-01T11:30:31.651Z,8.28
2022-12-01T11:31:31.667Z,8.32
2022-12-01T11:32:31.628Z,8.32
2022-12-01T11:33:31.616Z,8.38
2022-12-01T11:34:31.600Z,8.39
2022-12-01T11:35:31.611Z,8.44
2022-12-01T11:36:31.577Z,8.49
2022-12-01T11:37:31.568Z,8.50
2022-12-01T11:38:31.616Z,8.50
2022-12-01T11:39:31.568Z,8.53
2022-12-01T11:40:31.556Z,8.53
2022-12-01T11:41:31.529Z,8.54
2022-12-01T11:42:31.561Z,8.54
2022-12-01T11:43:31.505Z,8.59
2022-12-01T11:45:32.561Z,8.63
2022-12-01T11:46:31.505Z,8.59
2022-12-01T11:47:31.449Z,8.63
2022-12-01T11:48:31.516Z,8.60
2022-12-01T11:49:31.571Z,8.61
2022-12-01T11:50:31.466Z,8.60
2022-12-01T11:51:31.416Z,8.66
2022-12-01T11:52:31.419Z,8.68
2022-12-01T11:53:31.406Z,8.72
2022-12-01T11:54:31.377Z,8.75
2022-12-01T11:55:31.395Z,8.78
2022-12-01T11:56:31.365Z,8.79
2022-12-01T11:57:34.548Z,8.78
2022-12-01T11:58:31.420Z,8.77
2022-12-01T11:59:31.318Z,8.81
2022-12-01T12:00:31.363Z,8.78
2022-12-01T12:01:31.316Z,8.81
2022-12-01T12:02:31.388Z,8.86
2022-12-01T12:03:31.347Z,8.89
2022-12-01T12:04:31.318Z,8.93
2022-12-01T12:05:31.267Z,8.99
2022-12-01T12:06:39.985Z,8.89
2022-12-01T12:07:32.286Z,8.90
2022-12-01T12:08:31.309Z,8.86
2022-12-01T12:09:31.233Z,8.87
2022-12-01T12:10:31.331Z,8.72
2022-12-01T12:11:31.212Z,8.66
2022-12-01T12:12:31.220Z,8.61
2022-12-01T12:13:31.254Z,8.64
2022-12-01T12:14:31.167Z,8.64
2022-12-01T12:15:31.163Z,8.59
2022-12-01T12:16:33.459Z,8.53
2022-12-01T12:17:31.166Z,8.49
2022-12-01T12:18:31.128Z,8.50
2022-12-01T12:19:39.338Z,8.46
2022-12-01T12:20:32.102Z,8.49
2022-12-01T12:21:31.087Z,8.46
2022-12-01T12:22:31.082Z,8.41
2022-12-01T12:23:31.063Z,8.39
2022-12-01T12:24:31.052Z,8.35
2022-12-01T12:25:31.068Z,8.27
2022-12-01T12:26:31.073Z,8.14
2022-12-01T12:27:31.027Z,8.09
2022-12-01T12:28:31.045Z,8.08
2022-12-01T12:29:31.002Z,8.11
2022-12-01T12:30:31.034Z,8.11
2022-12-01T12:31:30.988Z,8.13
2022-12-01T12:32:30.971Z,7.96
2022-12-01T12:33:30.941Z,7.93
2022-12-01T12:34:30.954Z,7.90
2022-12-01T12:35:30.970Z,7.93
2022-12-01T12:36:31.001Z,7.91
2022-12-01T12:37:30.931Z,7.87
2022-12-01T12:38:30.900Z,7.85
2022-12-01T12:39:30.890Z,7.84
2022-12-01T12:40:30.883Z,7.91
2022-12-01T12:41:30.881Z,7.95
2022-12-01T12:42:30.863Z,7.96
2022-12-01T12:43:30.839Z,8.01
2022-12-01T12:44:36.645Z,8.01
2022-12-01T12:45:31.831Z,8.03
2022-12-01T12:46:30.841Z,7.85
2022-12-01T12:47:30.798Z,7.85
2022-12-01T12:48:30.800Z,7.85
2022-12-01T12:49:30.779Z,7.87
2022-12-01T12:50:30.851Z,7.85
2022-12-01T12:51:30.761Z,7.80
2022-12-01T12:52:30.759Z,7.85
2022-12-01T12:53:30.729Z,7.88
2022-12-01T12:54:30.757Z,7.91
2022-12-01T12:55:30.710Z,8.01
2022-12-01T12:56:30.731Z,8.08
2022-12-01T12:57:30.709Z,8.03
2022-12-01T12:58:30.789Z,8.03
2022-12-01T12:59:30.743Z,8.05
2022-12-01T13:00:30.781Z,8.01
2022-12-01T13:01:30.809Z,8.05
2022-12-01T13:02:30.726Z,8.05
2022-12-01T13:03:33.767Z,8.08
2022-12-01T13:04:30.711Z,8.09
2022-12-01T13:05:30.689Z,8.18
2022-12-01T13:06:30.678Z,8.14
2022-12-01T13:07:30.695Z,7.99
2022-12-01T13:08:30.659Z,7.96
2022-12-01T13:09:30.634Z,8.09
2022-12-01T13:10:30.631Z,8.14
2022-12-01T13:11:30.611Z,8.20
2022-12-01T13:12:30.661Z,8.20
2022-12-01T13:13:30.548Z,8.17
2022-12-01T13:14:30.708Z,8.17
2022-12-01T13:15:30.594Z,8.13
2022-12-01T13:16:30.542Z,8.18
2022-12-01T13:17:30.528Z,8.20
2022-12-01T13:18:30.499Z,8.08
2022-12-01T13:19:30.488Z,8.08
2022-12-01T13:20:30.484Z,8.08